Currently 80°F in Hemet, California, USA
80°F
80°F / 53°F
calm
0.00"
Tuesday, May 28, 2024 12:21 PM PDT

Hemet, California Weather Summary
Last 36 Hours

Temperature Winds Hourly Humidity Dewpoint
Time Report Norm Report Norm Max Gusts Precip. Rpt. Norm Rpt. Norm Pressure
1Tue 12:21 PM  80.1°F  75°F  calm  2 mph  none  0.00"  31%  40%  46°F  48°F  30.02"
2Tue 12:17 PM  80.1°F  75°F  calm  2 mph  none  ----  32%  40%  47°F  48°F  30.02"
Tue 12:00 PM  78.1°F  74°F  calm  2 mph  none  0.00"  33%  42%  46°F  48°F  30.02"
Tue 11:00 AM  75.6°F  70°F  calm  1 mph  none  0.00"  41%  49%  49°F  49°F  30.01"
Tue 10:00 AM  70.6°F  66°F  calm  1 mph  none  0.00"  50%  56%  50°F  50°F  30.01"
Tue 09:00 AM  65.5°F  62°F  calm  calm  none  0.00"  57%  64%  49°F  49°F  30.02"
Tue 08:00 AM  56.3°F  59°F  calm  calm  1 mph  0.00"  73%  70%  47°F  49°F  30.00"
Tue 07:00 AM  54.4°F  56°F  calm  calm  none  0.00"  76%  73%  47°F  47°F  29.99"
3Tue 06:16 AM  53.1°F  54°F  calm  calm  none  ----  73%  74%  44°F  46°F  29.99"
Tue 06:00 AM  53.3°F  54°F  calm  calm  1 mph  0.00"  73%  74%  45°F  46°F  29.99"
Tue 05:00 AM  54.2°F  55°F  calm  calm  none  0.00"  71%  74%  45°F  46°F  29.99"
Tue 04:00 AM  55.3°F  55°F  calm  calm  none  0.00"  75%  74%  47°F  47°F  29.98"
Tue 03:00 AM  56.2°F  56°F  calm  calm  none  0.00"  74%  73%  48°F  47°F  29.99"
Tue 02:00 AM  56.7°F  57°F  calm  calm  none  0.00"  73%  72%  48°F  47°F  29.99"
Tue 01:00 AM  57.8°F  57°F  calm  calm  none  0.00"  67%  71%  46°F  48°F  30.00"
Tue 12:01 AM  59.6°F  58°F  calm  calm  none  0.00"  66%  70%  48°F  48°F  30.01"
Mon 11:00 PM  61.5°F  60°F  calm  calm  none  0.00"  63%  67%  48°F  48°F  30.03"
Mon 10:00 PM  63.4°F  62°F  calm  calm  none  0.00"  59%  64%  48°F  49°F  30.03"
Mon 09:00 PM  66.4°F  64°F  calm  calm  none  0.00"  58%  59%  51°F  49°F  30.01"
Mon 08:00 PM  70.9°F  67°F  calm  1 mph  none  0.00"  46%  53%  48°F  49°F  30.01"
Mon 07:00 PM  77.2°F  72°F  calm  2 mph  none  0.00"  39%  46%  49°F  49°F  29.99"
Mon 06:00 PM  80.7°F  76°F  calm  3 mph  none  0.00"  34%  40%  49°F  49°F  29.98"
Mon 05:00 PM  84.1°F  78°F  calm  3 mph  none  0.00"  27%  36%  45°F  48°F  29.98"
Mon 04:00 PM  84.5°F  79°F  calm  3 mph  none  0.00"  28%  33%  47°F  47°F  29.98"
Mon 03:00 PM  84.7°F  79°F  calm  3 mph  none  0.00"  25%  32%  44°F  46°F  30.00"
Mon 02:00 PM  82.6°F  78°F  calm  2 mph  none  0.00"  25%  34%  42°F  46°F  30.00"
Mon 01:00 PM  80.9°F  76°F  calm  2 mph  none  0.00"  27%  38%  43°F  47°F  30.01"
Mon 12:00 PM  77.6°F  73°F  calm  2 mph  none  0.00"  34%  43%  46°F  48°F  30.02"
Mon 11:00 AM  72.7°F  69°F  calm  1 mph  none  0.00"  46%  50%  50°F  49°F  30.03"
Mon 10:00 AM  67.6°F  65°F  calm  1 mph  none  0.00"  58%  57%  52°F  49°F  30.03"
Mon 09:00 AM  62.0°F  62°F  calm  calm  none  0.00"  63%  65%  49°F  49°F  30.03"
Mon 08:00 AM  55.4°F  58°F  calm  calm  1 mph  0.00"  74%  71%  47°F  48°F  30.03"
Mon 07:00 AM  52.6°F  55°F  calm  calm  1 mph  0.00"  73%  74%  44°F  47°F  30.03"
Mon 06:00 AM  52.2°F  54°F  calm  calm  1 mph  0.00"  76%  74%  45°F  46°F  30.01"
Mon 05:00 AM  52.6°F  54°F  calm  calm  none  0.00"  78%  74%  46°F  46°F  29.99"
Mon 04:00 AM  53.6°F  55°F  calm  calm  none  0.00"  78%  74%  47°F  46°F  29.99"
Mon 03:00 AM  54.2°F  56°F  calm  calm  1 mph  0.00"  78%  73%  47°F  47°F  29.98"
Mon 02:00 AM  55.3°F  56°F  calm  calm  1 mph  0.00"  77%  73%  48°F  47°F  29.98"
Mon 01:00 AM  56.3°F  57°F  calm  calm  none  0.00"  75%  72%  48°F  48°F  29.99"

  1. Current weather data. No green row appears if the current weather data is also the high or low for the current day.
  2. High temperature for the current day.
  3. Low temperature for the current day.

The Hemet weather pages are a service of WeatherCurrents. Hemet, California is located in the San Jacinto Valley, in western Riverside County, at the foot of the San Jacinto mountains.
Copyright ©2024  WeatherCurrents. All rights reserved. - Submit questions and comments - Privacy Policy

This page automatically refreshes every 10 minutes.